createdAt,value
2019-03-25T00:01:14.891Z,79.62
2019-03-25T00:03:47.243Z,77.50
2019-03-25T00:06:19.694Z,71.85
2019-03-25T00:09:04.625Z,60.00
2019-03-25T00:11:25.912Z,67.47
2019-03-25T00:13:58.389Z,60.12
2019-03-25T00:16:31.288Z,55.95
2019-03-25T00:19:03.876Z,53.87
2019-03-25T00:21:36.053Z,50.10
2019-03-25T00:24:08.257Z,52.30
2019-03-25T00:26:40.292Z,59.85
2019-03-25T00:29:12.828Z,56.37
2019-03-25T00:31:45.148Z,59.88
2019-03-25T00:34:17.409Z,66.77
2019-03-25T00:36:49.742Z,58.87
2019-03-25T00:39:22.088Z,46.83
2019-03-25T00:41:54.599Z,50.43
2019-03-25T00:44:27.188Z,48.63
2019-03-25T00:46:59.317Z,49.45
2019-03-25T00:49:31.438Z,45.67
2019-03-25T00:52:03.610Z,44.27
2019-03-25T00:54:35.811Z,47.48
2019-03-25T00:57:08.305Z,46.08
2019-03-25T00:59:40.677Z,43.52
2019-03-25T01:02:14.090Z,60.95
2019-03-25T01:04:46.474Z,51.58
2019-03-25T01:07:18.750Z,46.37
2019-03-25T01:09:51.105Z,45.40
2019-03-25T01:12:23.253Z,42.25
2019-03-25T01:14:55.925Z,44.70
2019-03-25T01:17:28.166Z,43.48
2019-03-25T01:20:00.441Z,45.03
2019-03-25T01:22:32.574Z,47.55
2019-03-25T01:25:04.643Z,40.08
2019-03-25T01:27:37.167Z,43.95
2019-03-25T01:30:11.040Z,59.83
2019-03-25T01:32:43.234Z,45.08
2019-03-25T01:35:15.452Z,51.83
2019-03-25T01:37:48.086Z,46.55
2019-03-25T01:40:20.471Z,46.20
2019-03-25T01:42:52.615Z,43.80
2019-03-25T01:45:24.908Z,46.90
2019-03-25T01:47:58.323Z,45.35
2019-03-25T01:50:30.878Z,53.02
2019-03-25T01:53:03.218Z,52.35
2019-03-25T01:55:36.413Z,48.23
2019-03-25T01:58:09.009Z,52.70
2019-03-25T02:00:41.379Z,48.67
2019-03-25T02:03:13.724Z,46.88
2019-03-25T02:05:45.889Z,46.40
2019-03-25T02:08:18.077Z,43.33
2019-03-25T02:10:50.765Z,47.77
2019-03-25T02:13:23.010Z,44.13
2019-03-25T02:15:55.404Z,56.77
2019-03-25T02:18:27.812Z,45.08
2019-03-25T02:21:00.083Z,45.70
2019-03-25T02:23:32.532Z,41.18
2019-03-25T02:26:06.119Z,38.42
2019-03-25T02:28:38.436Z,40.73
2019-03-25T02:31:11.790Z,39.98
2019-03-25T02:33:44.049Z,40.03
2019-03-25T02:36:16.396Z,34.17
2019-03-25T02:38:48.494Z,39.15
2019-03-25T02:41:20.834Z,39.55
2019-03-25T02:43:52.874Z,33.23
2019-03-25T02:46:25.081Z,38.78
2019-03-25T02:48:57.432Z,30.85
2019-03-25T02:51:29.537Z,30.17
2019-03-25T02:54:01.784Z,36.73
2019-03-25T02:56:34.284Z,34.03
2019-03-25T02:59:07.171Z,35.55
2019-03-25T03:01:39.705Z,34.20
2019-03-25T03:04:11.833Z,34.63
2019-03-25T03:06:44.280Z,33.45
2019-03-25T03:09:16.549Z,32.88
2019-03-25T03:11:48.805Z,26.85
2019-03-25T03:14:21.013Z,29.47
2019-03-25T03:16:53.471Z,29.42
2019-03-25T03:19:26.035Z,27.70
2019-03-25T03:21:58.626Z,32.10
2019-03-25T03:24:31.016Z,27.80
2019-03-25T03:27:03.195Z,28.73
2019-03-25T03:29:35.391Z,30.60
2019-03-25T03:32:07.773Z,30.13
2019-03-25T03:34:39.903Z,27.15
2019-03-25T03:37:12.147Z,35.03
2019-03-25T03:39:44.709Z,29.33
2019-03-25T03:42:17.072Z,33.63
2019-03-25T03:44:49.453Z,30.23
2019-03-25T03:47:21.858Z,26.52
2019-03-25T03:49:54.249Z,32.20
2019-03-25T03:52:26.522Z,28.67
2019-03-25T03:54:58.733Z,26.12
2019-03-25T03:57:31.081Z,27.97
2019-03-25T04:00:03.669Z,27.73
2019-03-25T04:02:36.105Z,27.03
2019-03-25T04:05:08.418Z,28.15
2019-03-25T04:07:40.789Z,28.90
2019-03-25T04:10:13.228Z,25.55
2019-03-25T04:12:45.515Z,27.58
2019-03-25T04:15:20.130Z,28.50
2019-03-25T04:17:52.515Z,24.85
2019-03-25T04:20:24.674Z,28.33
2019-03-25T04:22:57.010Z,29.63
2019-03-25T04:25:29.418Z,31.20
2019-03-25T04:28:01.547Z,30.43
2019-03-25T04:30:33.821Z,29.25
2019-03-25T04:33:06.322Z,25.88
2019-03-25T04:35:38.589Z,25.85
2019-03-25T04:38:10.766Z,30.27
2019-03-25T04:40:43.066Z,23.87
2019-03-25T04:43:15.375Z,32.40
2019-03-25T04:45:47.719Z,27.87
2019-03-25T04:48:20.136Z,25.52
2019-03-25T04:50:52.269Z,33.43
2019-03-25T04:53:24.456Z,30.92
2019-03-25T04:55:56.610Z,29.65
2019-03-25T04:58:28.907Z,27.13
2019-03-25T05:01:01.419Z,31.48
2019-03-25T05:03:33.642Z,49.05
2019-03-25T05:06:05.768Z,29.60
2019-03-25T05:08:38.061Z,30.35
2019-03-25T05:11:10.338Z,27.60
2019-03-25T05:13:42.817Z,29.82
2019-03-25T05:16:15.133Z,28.93
2019-03-25T05:18:47.521Z,29.02
2019-03-25T05:21:19.662Z,30.92
2019-03-25T05:23:51.922Z,31.40
2019-03-25T05:26:23.987Z,31.90
2019-03-25T05:28:56.195Z,29.52
2019-03-25T05:31:28.568Z,27.37
2019-03-25T05:34:00.974Z,28.98
2019-03-25T05:36:34.406Z,30.48
2019-03-25T05:39:09.774Z,27.58
2019-03-25T05:41:42.139Z,26.37
2019-03-25T05:44:14.833Z,28.20
2019-03-25T05:46:47.160Z,32.58
2019-03-25T05:49:19.266Z,27.05
2019-03-25T05:51:52.464Z,25.87
2019-03-25T05:54:24.790Z,26.12
2019-03-25T05:57:02.468Z,28.38
2019-03-25T05:59:30.680Z,28.05
2019-03-25T06:02:04.232Z,26.52
2019-03-25T06:04:36.691Z,26.10
2019-03-25T06:07:08.853Z,26.37
2019-03-25T06:09:40.927Z,29.25
2019-03-25T06:12:13.460Z,25.13
2019-03-25T06:14:45.739Z,29.37
2019-03-25T06:17:18.144Z,25.55
2019-03-25T06:19:50.521Z,26.07
2019-03-25T06:22:22.796Z,24.98
2019-03-25T06:24:55.534Z,26.07
2019-03-25T06:27:27.982Z,25.12
2019-03-25T06:30:00.287Z,26.47
2019-03-25T06:32:32.599Z,26.35
2019-03-25T06:35:05.930Z,28.00
2019-03-25T06:37:38.209Z,31.00
2019-03-25T06:40:11.596Z,25.48
2019-03-25T06:42:43.977Z,31.75
2019-03-25T06:45:16.181Z,29.42
2019-03-25T06:47:48.406Z,27.32
2019-03-25T06:50:20.627Z,27.60
2019-03-25T06:52:53.156Z,28.05
2019-03-25T06:55:25.388Z,28.50
2019-03-25T06:57:57.725Z,32.93
2019-03-25T07:00:30.030Z,27.65
2019-03-25T07:03:02.614Z,26.17
2019-03-25T07:05:35.510Z,28.77
2019-03-25T07:08:07.784Z,31.85
2019-03-25T07:10:40.219Z,29.65
2019-03-25T07:13:12.341Z,27.57
2019-03-25T07:15:44.608Z,29.87
2019-03-25T07:18:16.936Z,27.25
2019-03-25T07:20:49.230Z,27.53
2019-03-25T07:23:21.563Z,37.20
2019-03-25T07:25:54.345Z,29.92
2019-03-25T07:28:26.752Z,28.70
2019-03-25T07:30:59.135Z,28.45
2019-03-25T07:33:31.548Z,46.70
2019-03-25T07:36:03.895Z,32.03
2019-03-25T07:38:36.171Z,37.30
2019-03-25T07:41:08.359Z,33.92
2019-03-25T07:43:41.672Z,28.27
2019-03-25T07:46:13.871Z,26.42
2019-03-25T07:48:45.889Z,26.70
2019-03-25T07:51:18.156Z,26.65
2019-03-25T07:53:51.130Z,34.90
2019-03-25T07:56:23.506Z,44.87
2019-03-25T07:58:55.648Z,31.07
2019-03-25T08:01:27.822Z,27.77
2019-03-25T08:04:01.849Z,31.70
2019-03-25T08:06:34.399Z,27.05
2019-03-25T08:09:08.211Z,27.45
2019-03-25T08:11:40.582Z,35.03
2019-03-25T08:14:12.824Z,48.87
2019-03-25T08:16:45.177Z,28.57
2019-03-25T08:19:18.447Z,28.15
2019-03-25T08:21:50.708Z,30.27
2019-03-25T08:24:23.246Z,27.13
2019-03-25T08:26:55.711Z,27.20
2019-03-25T08:29:27.894Z,27.48
2019-03-25T08:32:00.231Z,40.80
2019-03-25T08:34:32.282Z,27.47
2019-03-25T08:37:04.717Z,27.75
2019-03-25T08:39:36.929Z,26.90
2019-03-25T08:42:09.140Z,42.85
2019-03-25T08:44:41.626Z,28.95
2019-03-25T08:47:14.190Z,27.50
2019-03-25T08:49:46.538Z,32.08
2019-03-25T08:52:19.341Z,26.57
2019-03-25T08:54:51.834Z,25.48
2019-03-25T08:57:24.145Z,26.37
2019-03-25T08:59:57.670Z,27.93
2019-03-25T09:02:30.095Z,27.60
2019-03-25T09:05:02.510Z,26.55
2019-03-25T09:07:34.932Z,26.40
2019-03-25T09:10:08.488Z,35.30
2019-03-25T09:12:40.870Z,32.53
2019-03-25T09:15:13.352Z,29.17
2019-03-25T09:17:45.721Z,25.85
2019-03-25T09:20:18.039Z,29.32
2019-03-25T09:22:50.298Z,29.65
2019-03-25T09:25:22.570Z,30.85
2019-03-25T09:27:54.928Z,30.30
2019-03-25T09:30:30.031Z,26.93
2019-03-25T09:33:02.522Z,40.52
2019-03-25T09:35:34.914Z,45.78
2019-03-25T09:38:07.403Z,25.35
2019-03-25T09:40:39.638Z,26.83
2019-03-25T09:43:12.959Z,27.07
2019-03-25T09:45:45.088Z,24.20
2019-03-25T09:48:17.359Z,27.13
2019-03-25T09:50:49.597Z,24.45
2019-03-25T09:53:21.715Z,26.80
2019-03-25T09:55:53.950Z,25.08
2019-03-25T09:58:35.617Z,28.00
2019-03-25T10:00:59.701Z,33.33
2019-03-25T10:03:31.905Z,32.13
2019-03-25T10:06:04.580Z,27.70
2019-03-25T10:08:37.036Z,30.95
2019-03-25T10:11:09.403Z,30.30
2019-03-25T10:13:41.783Z,35.40
2019-03-25T10:16:14.166Z,29.40
2019-03-25T10:18:46.644Z,28.52
2019-03-25T10:21:19.160Z,26.57
2019-03-25T10:23:51.453Z,27.27
2019-03-25T10:26:24.885Z,37.28
2019-03-25T10:28:57.324Z,30.50
2019-03-25T10:31:29.745Z,31.47
2019-03-25T10:34:02.102Z,37.45
2019-03-25T10:36:34.502Z,26.90
2019-03-25T10:39:08.696Z,24.05
2019-03-25T10:41:40.744Z,27.05
2019-03-25T10:44:13.040Z,27.10
2019-03-25T10:46:45.359Z,30.00
2019-03-25T10:49:18.577Z,29.12
2019-03-25T10:51:50.706Z,31.75
2019-03-25T10:54:23.451Z,43.33
2019-03-25T10:56:56.027Z,40.50
2019-03-25T10:59:28.277Z,54.47
2019-03-25T11:02:00.698Z,49.63
2019-03-25T11:04:33.119Z,42.58
2019-03-25T11:07:05.705Z,37.55
2019-03-25T11:09:38.221Z,38.92
2019-03-25T11:12:10.331Z,40.88
2019-03-25T11:14:42.700Z,35.00
2019-03-25T11:17:15.075Z,35.65
2019-03-25T11:19:48.346Z,37.42
2019-03-25T11:22:20.881Z,37.10
2019-03-25T11:24:52.918Z,41.13
2019-03-25T11:27:25.360Z,42.17
2019-03-25T11:29:57.795Z,39.03
2019-03-25T11:32:30.001Z,43.83
2019-03-25T11:35:02.421Z,40.85
2019-03-25T11:37:34.876Z,38.67
2019-03-25T11:40:08.981Z,40.17
2019-03-25T11:42:41.431Z,45.35
2019-03-25T11:45:13.772Z,39.33
2019-03-25T11:47:45.970Z,42.70
2019-03-25T11:50:18.349Z,36.70
2019-03-25T11:52:51.748Z,47.10
2019-03-25T11:55:24.091Z,34.92
2019-03-25T11:57:56.531Z,36.10
2019-03-25T12:00:30.233Z,41.68
2019-03-25T12:03:02.735Z,36.65
2019-03-25T12:05:35.085Z,37.50
2019-03-25T12:08:07.769Z,40.52
2019-03-25T12:10:40.257Z,40.88
2019-03-25T12:13:12.520Z,39.80
2019-03-25T12:15:44.854Z,42.65
2019-03-25T12:18:17.260Z,38.20
2019-03-25T12:20:49.546Z,42.75
2019-03-25T12:23:26.387Z,38.10
2019-03-25T12:25:55.459Z,39.23
2019-03-25T12:28:27.988Z,42.25
2019-03-25T12:31:00.104Z,38.23
2019-03-25T12:33:32.387Z,41.00
2019-03-25T12:36:04.753Z,40.63
2019-03-25T12:38:37.153Z,40.93
2019-03-25T12:41:09.611Z,37.85
2019-03-25T12:43:41.968Z,38.02
2019-03-25T12:46:14.475Z,37.17
2019-03-25T12:48:47.687Z,47.85
2019-03-25T12:51:19.984Z,53.33
2019-03-25T12:53:52.361Z,54.60
2019-03-25T12:56:24.731Z,75.40
2019-03-25T12:58:57.177Z,62.13
2019-03-25T13:01:29.653Z,51.30
2019-03-25T13:04:01.973Z,49.30
2019-03-25T13:06:34.357Z,42.90
2019-03-25T13:09:08.582Z,42.30
2019-03-25T13:11:41.174Z,40.48
2019-03-25T13:14:13.295Z,43.33
2019-03-25T13:16:45.546Z,42.15
2019-03-25T13:19:17.643Z,39.13
2019-03-25T13:21:50.111Z,42.00
2019-03-25T13:24:22.227Z,44.20
2019-03-25T13:26:54.487Z,42.15
2019-03-25T13:29:26.692Z,34.63
2019-03-25T13:31:59.211Z,38.17
2019-03-25T13:34:31.440Z,36.75
2019-03-25T13:37:03.715Z,35.48
2019-03-25T13:39:35.978Z,36.93
2019-03-25T13:42:08.432Z,38.33
2019-03-25T13:44:40.524Z,37.10
2019-03-25T13:47:12.912Z,40.52
2019-03-25T13:49:45.273Z,39.73
2019-03-25T13:52:17.675Z,39.80
2019-03-25T13:54:51.031Z,35.33
2019-03-25T13:57:23.237Z,36.93
2019-03-25T14:00:02.876Z,38.53
2019-03-25T14:02:29.090Z,40.45
2019-03-25T14:05:01.426Z,48.98
2019-03-25T14:07:33.805Z,48.13
2019-03-25T14:10:08.309Z,42.50
2019-03-25T14:12:40.667Z,45.90
2019-03-25T14:15:12.876Z,47.83
2019-03-25T14:17:45.085Z,46.00
2019-03-25T14:20:17.239Z,49.45
2019-03-25T14:22:49.534Z,48.75
2019-03-25T14:25:21.659Z,47.38
2019-03-25T14:27:54.031Z,49.08
2019-03-25T14:30:26.108Z,44.73
2019-03-25T14:32:58.458Z,42.60
2019-03-25T14:35:33.250Z,46.23
2019-03-25T14:38:05.434Z,44.77
2019-03-25T14:40:37.492Z,46.48
2019-03-25T14:43:09.843Z,56.98
2019-03-25T14:45:42.267Z,46.77
2019-03-25T14:48:14.678Z,49.83
2019-03-25T14:50:47.542Z,43.68
2019-03-25T14:53:20.164Z,43.77
2019-03-25T14:55:52.237Z,41.13
2019-03-25T14:58:24.502Z,39.05
2019-03-25T15:00:56.772Z,38.85
2019-03-25T15:03:29.157Z,40.20
2019-03-25T15:06:01.665Z,42.70
2019-03-25T15:08:33.980Z,40.90
2019-03-25T15:11:06.730Z,40.20
2019-03-25T15:13:39.049Z,41.80
2019-03-25T15:16:11.379Z,40.75
2019-03-25T15:18:43.459Z,39.83
2019-03-25T15:21:16.097Z,39.73
2019-03-25T15:23:48.357Z,39.18
2019-03-25T15:26:21.027Z,42.48
2019-03-25T15:28:53.478Z,39.30
2019-03-25T15:31:26.813Z,40.35
2019-03-25T15:33:59.031Z,41.55
2019-03-25T15:36:31.271Z,40.38
2019-03-25T15:39:03.526Z,40.78
2019-03-25T15:41:36.893Z,41.42
2019-03-25T15:44:09.496Z,40.35
2019-03-25T15:46:41.701Z,36.42
2019-03-25T15:49:13.870Z,38.23
2019-03-25T15:51:45.987Z,37.33
2019-03-25T15:54:18.346Z,34.48
2019-03-25T15:56:50.799Z,37.13
2019-03-25T15:59:22.861Z,37.30
2019-03-25T16:01:55.200Z,36.40
2019-03-25T16:04:27.405Z,39.18
2019-03-25T16:06:59.741Z,45.77
2019-03-25T16:09:31.982Z,47.53
2019-03-25T16:12:04.974Z,49.80
2019-03-25T16:14:37.255Z,52.05
2019-03-25T16:17:09.406Z,52.55
2019-03-25T16:19:41.662Z,59.77
2019-03-25T16:22:13.982Z,63.07
2019-03-25T16:24:46.144Z,63.98
2019-03-25T16:27:18.450Z,66.20
2019-03-25T16:29:50.589Z,66.17
2019-03-25T16:32:22.673Z,57.47
2019-03-25T16:34:54.947Z,55.90
2019-03-25T16:37:27.224Z,54.63
2019-03-25T16:39:59.852Z,48.92
2019-03-25T16:42:32.006Z,52.15
2019-03-25T16:45:04.173Z,46.37
2019-03-25T16:47:36.388Z,45.98
2019-03-25T16:50:09.415Z,42.03
2019-03-25T16:52:41.954Z,41.23
2019-03-25T16:55:14.423Z,39.03
2019-03-25T16:57:47.182Z,39.17
2019-03-25T17:00:27.287Z,39.00
2019-03-25T17:02:53.318Z,43.92
2019-03-25T17:05:25.569Z,36.88
2019-03-25T17:07:57.957Z,37.03
2019-03-25T17:10:30.399Z,44.43
2019-03-25T17:13:02.637Z,36.60
2019-03-25T17:15:34.905Z,44.10
2019-03-25T17:18:07.172Z,40.08
2019-03-25T17:20:39.431Z,40.33
2019-03-25T17:23:11.662Z,37.15
2019-03-25T17:25:52.640Z,39.75
2019-03-25T17:28:17.590Z,40.17
2019-03-25T17:30:49.895Z,38.85
2019-03-25T17:33:22.269Z,40.60
2019-03-25T17:35:54.454Z,38.73
2019-03-25T17:38:26.817Z,34.95
2019-03-25T17:40:59.123Z,34.05
2019-03-25T17:43:31.427Z,31.65
2019-03-25T17:46:03.791Z,32.07
2019-03-25T17:48:35.998Z,35.68
2019-03-25T17:51:08.310Z,31.65
2019-03-25T17:53:40.564Z,35.03
2019-03-25T17:56:13.113Z,32.03
2019-03-25T17:58:45.632Z,32.78
2019-03-25T18:01:18.074Z,33.38
2019-03-25T18:03:50.452Z,33.07
2019-03-25T18:06:24.434Z,34.10
2019-03-25T18:08:56.642Z,38.60
2019-03-25T18:11:28.865Z,35.07
2019-03-25T18:14:00.955Z,33.90
2019-03-25T18:16:33.087Z,33.58
2019-03-25T18:19:05.639Z,34.07
2019-03-25T18:21:37.685Z,33.97
2019-03-25T18:24:10.134Z,34.27
2019-03-25T18:26:43.632Z,34.13
2019-03-25T18:29:17.145Z,37.03
2019-03-25T18:31:50.568Z,35.43
2019-03-25T18:34:22.845Z,34.15
2019-03-25T18:36:54.981Z,32.08
2019-03-25T18:39:27.324Z,35.03
2019-03-25T18:41:59.640Z,33.15
2019-03-25T18:44:31.944Z,30.95
2019-03-25T18:47:04.385Z,35.03
2019-03-25T18:49:36.628Z,29.75
2019-03-25T18:52:08.919Z,34.45
2019-03-25T18:54:41.185Z,32.88
2019-03-25T18:57:14.666Z,36.00
2019-03-25T18:59:47.407Z,34.88
2019-03-25T19:02:19.580Z,33.95
2019-03-25T19:04:51.934Z,30.90
2019-03-25T19:07:24.150Z,29.98
2019-03-25T19:09:56.513Z,35.78
2019-03-25T19:12:28.987Z,36.63
2019-03-25T19:15:02.844Z,32.17
2019-03-25T19:17:34.829Z,34.73
2019-03-25T19:20:07.975Z,33.50
2019-03-25T19:22:40.210Z,35.63
2019-03-25T19:25:12.897Z,31.02
2019-03-25T19:27:45.676Z,32.47
2019-03-25T19:30:18.153Z,33.00
2019-03-25T19:32:50.306Z,31.50
2019-03-25T19:35:22.590Z,29.73
2019-03-25T19:37:54.887Z,31.62
2019-03-25T19:40:27.203Z,34.63
2019-03-25T19:42:59.447Z,31.77
2019-03-25T19:45:31.794Z,32.98
2019-03-25T19:48:04.132Z,30.83
2019-03-25T19:50:36.266Z,32.15
2019-03-25T19:53:18.615Z,32.60
2019-03-25T19:55:42.026Z,30.30
2019-03-25T19:58:14.619Z,32.75
2019-03-25T20:00:46.884Z,32.53
2019-03-25T20:03:19.075Z,28.50
2019-03-25T20:05:51.397Z,30.32
2019-03-25T20:08:23.736Z,30.60
2019-03-25T20:10:56.054Z,34.15
2019-03-25T20:13:28.142Z,29.48
2019-03-25T20:16:00.488Z,31.60
2019-03-25T20:18:32.816Z,30.60
2019-03-25T20:21:05.174Z,25.60
2019-03-25T20:23:37.481Z,26.40
2019-03-25T20:26:09.738Z,28.10
2019-03-25T20:28:41.989Z,28.73
2019-03-25T20:31:14.470Z,26.68
2019-03-25T20:33:46.925Z,28.55
2019-03-25T20:36:19.227Z,27.37
2019-03-25T20:38:51.437Z,24.05
2019-03-25T20:41:24.585Z,25.45
2019-03-25T20:43:56.892Z,27.07
2019-03-25T20:46:29.211Z,28.23
2019-03-25T20:49:01.681Z,27.17
2019-03-25T20:51:34.032Z,29.02
2019-03-25T20:54:06.199Z,27.82
2019-03-25T20:56:38.500Z,28.12
2019-03-25T20:59:11.040Z,25.68
2019-03-25T21:01:43.425Z,27.27
2019-03-25T21:04:15.515Z,26.90
2019-03-25T21:06:47.977Z,28.17
2019-03-25T21:09:20.397Z,26.77
2019-03-25T21:11:52.833Z,27.75
2019-03-25T21:14:25.793Z,28.00
2019-03-25T21:16:58.225Z,27.27
2019-03-25T21:19:30.522Z,31.12
2019-03-25T21:22:02.797Z,30.97
2019-03-25T21:24:35.088Z,32.58
2019-03-25T21:27:07.456Z,27.48
2019-03-25T21:29:39.670Z,29.50
2019-03-25T21:32:11.895Z,31.82
2019-03-25T21:34:44.226Z,32.53
2019-03-25T21:37:16.445Z,37.88
2019-03-25T21:39:48.828Z,27.82
2019-03-25T21:42:21.394Z,28.45
2019-03-25T21:44:53.930Z,28.50
2019-03-25T21:47:26.320Z,28.27
2019-03-25T21:49:58.759Z,31.85
2019-03-25T21:52:31.134Z,29.20
2019-03-25T21:55:03.513Z,30.05
2019-03-25T21:57:35.699Z,30.77
2019-03-25T22:00:09.621Z,29.15
2019-03-25T22:02:42.526Z,30.45
2019-03-25T22:05:14.993Z,31.60
2019-03-25T22:07:47.437Z,31.95
2019-03-25T22:10:19.578Z,35.75
2019-03-25T22:12:51.725Z,31.50
2019-03-25T22:15:23.825Z,33.53
2019-03-25T22:17:55.914Z,33.08
2019-03-25T22:20:28.134Z,38.70
2019-03-25T22:23:00.243Z,36.55
2019-03-25T22:25:32.511Z,37.83
2019-03-25T22:28:04.933Z,35.38
2019-03-25T22:30:37.075Z,32.38
2019-03-25T22:33:09.440Z,39.58
2019-03-25T22:35:41.625Z,36.95
2019-03-25T22:38:13.755Z,36.03
2019-03-25T22:40:45.983Z,39.75
2019-03-25T22:43:18.154Z,41.02
2019-03-25T22:45:50.314Z,40.70
2019-03-25T22:48:22.487Z,46.80
2019-03-25T22:50:54.631Z,50.45
2019-03-25T22:53:26.824Z,39.80
2019-03-25T22:55:59.061Z,40.77
2019-03-25T22:58:31.357Z,45.88
2019-03-25T23:01:03.975Z,45.20
2019-03-25T23:03:39.521Z,43.50
2019-03-25T23:06:10.044Z,64.40
2019-03-25T23:08:42.425Z,41.67
2019-03-25T23:11:14.663Z,57.33
2019-03-25T23:13:46.865Z,48.92
2019-03-25T23:16:19.186Z,56.10
2019-03-25T23:18:51.362Z,49.00
2019-03-25T23:21:23.609Z,48.27
2019-03-25T23:23:56.870Z,46.75
2019-03-25T23:26:29.380Z,49.00
2019-03-25T23:29:01.646Z,53.15
2019-03-25T23:31:33.861Z,54.18
2019-03-25T23:34:06.403Z,44.13
2019-03-25T23:36:38.829Z,45.33
2019-03-25T23:39:11.189Z,47.73
2019-03-25T23:41:43.451Z,52.57
2019-03-25T23:44:15.749Z,54.50
2019-03-25T23:46:47.911Z,50.63
2019-03-25T23:49:20.304Z,49.13
2019-03-25T23:51:52.630Z,44.33
2019-03-25T23:54:24.818Z,87.15
2019-03-25T23:56:57.069Z,50.92
2019-03-25T23:59:29.335Z,48.63
